createdAt,value
2018-04-29T00:02:13.732Z,12.20
2018-04-29T00:04:41.278Z,12.10
2018-04-29T00:07:08.865Z,12.00
2018-04-29T00:09:37.300Z,12.00
2018-04-29T00:12:04.963Z,11.90
2018-04-29T00:14:32.584Z,11.80
2018-04-29T00:17:00.186Z,11.80
2018-04-29T00:19:27.816Z,11.70
2018-04-29T00:21:55.469Z,11.70
2018-04-29T00:24:23.846Z,11.60
2018-04-29T00:26:52.242Z,11.50
2018-04-29T00:29:19.891Z,11.60
2018-04-29T00:31:47.560Z,11.50
2018-04-29T00:34:15.116Z,11.50
2018-04-29T00:36:42.686Z,11.40
2018-04-29T00:39:10.320Z,11.40
2018-04-29T00:41:38.648Z,11.30
2018-04-29T00:44:06.619Z,11.20
2018-04-29T00:46:34.204Z,11.20
2018-04-29T00:49:01.806Z,11.00
2018-04-29T00:51:41.891Z,10.90
2018-04-29T00:54:09.421Z,10.90
2018-04-29T00:56:37.085Z,10.80
2018-04-29T00:59:04.861Z,10.80
2018-04-29T01:01:32.539Z,10.70
2018-04-29T01:04:00.087Z,10.60
2018-04-29T01:06:27.729Z,10.60
2018-04-29T01:08:55.362Z,10.70
2018-04-29T01:11:22.924Z,10.70
2018-04-29T01:13:50.542Z,10.60
2018-04-29T01:16:18.150Z,10.50
2018-04-29T01:18:45.752Z,10.50
2018-04-29T01:21:13.434Z,10.60
2018-04-29T01:23:40.995Z,10.50
2018-04-29T01:26:08.547Z,10.40
2018-04-29T01:28:36.110Z,10.30
2018-04-29T01:31:03.707Z,10.30
2018-04-29T01:33:31.238Z,10.20
2018-04-29T01:35:58.776Z,10.10
2018-04-29T01:38:26.363Z,10.10
2018-04-29T01:40:53.937Z,10.00
2018-04-29T01:43:21.597Z,10.00
2018-04-29T01:45:49.156Z,9.90
2018-04-29T01:48:16.891Z,9.90
2018-04-29T01:50:44.476Z,12.80
2018-04-29T01:53:12.109Z,10.00
2018-04-29T01:55:39.634Z,10.00
2018-04-29T01:58:07.230Z,10.00
2018-04-29T02:00:34.869Z,10.00
2018-04-29T02:03:02.537Z,10.00
2018-04-29T02:05:30.321Z,9.90
2018-04-29T02:07:58.048Z,10.00
2018-04-29T02:10:25.728Z,9.90
2018-04-29T02:12:54.125Z,9.70
2018-04-29T02:15:24.142Z,9.80
2018-04-29T02:17:52.727Z,9.70
2018-04-29T02:20:20.369Z,9.60
2018-04-29T02:22:48.054Z,9.50
2018-04-29T02:25:15.770Z,9.40
2018-04-29T02:27:43.462Z,9.40
2018-04-29T02:30:11.228Z,9.30
2018-04-29T02:32:39.708Z,9.20
2018-04-29T02:35:07.307Z,9.20
2018-04-29T02:37:34.854Z,9.30
2018-04-29T02:40:02.402Z,9.20
2018-04-29T02:42:30.066Z,9.30
2018-04-29T02:44:57.728Z,9.30
2018-04-29T02:47:25.398Z,9.30
2018-04-29T02:49:53.050Z,9.30
2018-04-29T02:52:21.420Z,9.20
2018-04-29T02:54:49.808Z,9.20
2018-04-29T02:57:18.188Z,9.10
2018-04-29T02:59:47.446Z,9.00
2018-04-29T03:02:14.985Z,9.00
2018-04-29T03:04:42.653Z,9.00
2018-04-29T03:07:10.214Z,9.00
2018-04-29T03:09:37.934Z,8.90
2018-04-29T03:12:06.405Z,8.90
2018-04-29T03:14:34.095Z,8.90
2018-04-29T03:17:01.669Z,8.90
2018-04-29T03:19:29.351Z,8.80
2018-04-29T03:21:56.913Z,8.70
2018-04-29T03:24:24.415Z,8.70
2018-04-29T03:26:52.102Z,8.70
2018-04-29T03:29:19.662Z,8.80
2018-04-29T03:31:48.112Z,8.90
2018-04-29T03:34:16.459Z,9.00
2018-04-29T03:36:44.032Z,8.90
2018-04-29T03:39:11.684Z,9.00
2018-04-29T03:41:39.379Z,9.00
2018-04-29T03:44:06.963Z,8.90
2018-04-29T03:46:34.676Z,8.90
2018-04-29T03:49:02.355Z,8.90
2018-04-29T03:51:30.004Z,8.90
2018-04-29T03:53:57.690Z,8.90
2018-04-29T03:56:25.999Z,8.80
2018-04-29T03:59:05.325Z,8.80
2018-04-29T04:01:51.278Z,8.80
2018-04-29T04:04:12.382Z,8.70
2018-04-29T04:06:40.167Z,8.70
2018-04-29T04:09:07.846Z,8.60
2018-04-29T04:11:35.482Z,8.50
2018-04-29T04:14:03.157Z,8.50
2018-04-29T04:16:30.817Z,8.50
2018-04-29T04:18:58.474Z,8.50
2018-04-29T04:21:26.245Z,8.60
2018-04-29T04:23:53.903Z,8.70
2018-04-29T04:26:21.542Z,8.60
2018-04-29T04:28:49.329Z,8.60
2018-04-29T04:31:17.060Z,8.60
2018-04-29T04:33:44.647Z,8.60
2018-04-29T04:36:12.316Z,8.70
2018-04-29T04:38:39.951Z,8.70
2018-04-29T04:41:07.503Z,8.80
2018-04-29T04:43:35.200Z,8.70
2018-04-29T04:46:02.848Z,8.70
2018-04-29T04:48:30.472Z,8.60
2018-04-29T04:50:57.985Z,8.60
2018-04-29T04:53:25.591Z,8.60
2018-04-29T04:55:53.252Z,8.60
2018-04-29T04:58:20.788Z,8.70
2018-04-29T05:00:49.095Z,8.70
2018-04-29T05:03:16.781Z,8.70
2018-04-29T05:05:44.366Z,8.80
2018-04-29T05:08:11.921Z,8.80
2018-04-29T05:10:39.559Z,8.90
2018-04-29T05:13:07.075Z,9.00
2018-04-29T05:15:34.759Z,9.00
2018-04-29T05:18:02.319Z,9.10
2018-04-29T05:20:29.880Z,9.20
2018-04-29T05:22:57.543Z,9.30
2018-04-29T05:25:25.219Z,9.50
2018-04-29T05:27:53.632Z,9.50
2018-04-29T05:30:21.195Z,9.50
2018-04-29T05:32:48.910Z,9.70
2018-04-29T05:35:16.647Z,9.80
2018-04-29T05:37:44.236Z,10.00
2018-04-29T05:40:12.044Z,10.10
2018-04-29T05:42:39.600Z,10.20
2018-04-29T05:45:07.170Z,10.30
2018-04-29T05:47:34.828Z,10.40
2018-04-29T05:50:02.448Z,10.40
2018-04-29T05:52:30.201Z,10.50
2018-04-29T05:54:57.800Z,10.50
2018-04-29T05:57:25.376Z,10.70
2018-04-29T05:59:52.988Z,10.70
2018-04-29T06:02:20.641Z,10.70
2018-04-29T06:04:48.196Z,10.80
2018-04-29T06:07:16.592Z,10.90
2018-04-29T06:09:44.255Z,10.90
2018-04-29T06:12:11.855Z,11.00
2018-04-29T06:14:39.456Z,11.00
2018-04-29T06:17:07.791Z,11.10
2018-04-29T06:19:35.352Z,11.10
2018-04-29T06:22:03.805Z,11.10
2018-04-29T06:24:31.470Z,11.30
2018-04-29T06:26:59.130Z,11.30
2018-04-29T06:29:26.793Z,11.50
2018-04-29T06:31:54.338Z,11.60
2018-04-29T06:34:22.733Z,11.80
2018-04-29T06:36:50.294Z,11.80
2018-04-29T06:39:17.912Z,12.10
2018-04-29T06:41:45.619Z,12.20
2018-04-29T06:44:13.282Z,12.40
2018-04-29T06:46:41.050Z,12.60
2018-04-29T06:49:08.709Z,12.70
2018-04-29T06:51:36.373Z,12.90
2018-04-29T06:54:04.035Z,13.00
2018-04-29T06:56:31.595Z,13.00
2018-04-29T06:58:59.361Z,13.00
2018-04-29T07:01:26.998Z,13.00
2018-04-29T07:03:54.713Z,13.00
2018-04-29T07:06:22.255Z,12.90
2018-04-29T07:08:49.910Z,13.00
2018-04-29T07:11:17.572Z,13.00
2018-04-29T07:13:45.236Z,13.10
2018-04-29T07:16:13.001Z,13.10
2018-04-29T07:18:40.775Z,13.20
2018-04-29T07:21:08.658Z,13.10
2018-04-29T07:23:36.501Z,13.10
2018-04-29T07:26:04.149Z,13.00
2018-04-29T07:28:31.875Z,13.10
2018-04-29T07:30:59.694Z,13.10
2018-04-29T07:33:27.361Z,13.10
2018-04-29T07:35:55.060Z,13.00
2018-04-29T07:38:22.620Z,13.00
2018-04-29T07:40:50.485Z,12.90
2018-04-29T07:43:18.217Z,12.80
2018-04-29T07:45:45.882Z,12.80
2018-04-29T07:48:13.640Z,12.80
2018-04-29T07:50:41.253Z,12.70
2018-04-29T07:53:09.073Z,12.70
2018-04-29T07:55:36.633Z,12.60
2018-04-29T07:58:04.398Z,12.60
2018-04-29T08:00:32.057Z,12.60
2018-04-29T08:02:59.883Z,12.60
2018-04-29T08:05:27.588Z,12.60
2018-04-29T08:07:55.556Z,12.60
2018-04-29T08:10:23.362Z,12.80
2018-04-29T08:12:51.189Z,12.90
2018-04-29T08:15:19.669Z,13.40
2018-04-29T08:17:48.046Z,13.40
2018-04-29T08:20:15.816Z,13.70
2018-04-29T08:22:43.653Z,13.80
2018-04-29T08:25:11.346Z,13.90
2018-04-29T08:27:40.233Z,14.20
2018-04-29T08:30:07.952Z,14.40
2018-04-29T08:32:35.628Z,14.80
2018-04-29T08:35:03.549Z,15.10
2018-04-29T08:37:31.337Z,15.30
2018-04-29T08:39:58.961Z,15.40
2018-04-29T08:42:26.513Z,15.70
2018-04-29T08:44:54.980Z,15.70
2018-04-29T08:47:22.759Z,15.60
2018-04-29T08:49:50.330Z,15.60
2018-04-29T08:52:24.035Z,15.40
2018-04-29T08:54:51.558Z,15.20
2018-04-29T08:57:19.189Z,14.90
2018-04-29T08:59:47.005Z,14.70
2018-04-29T09:02:15.542Z,14.30
2018-04-29T09:04:43.234Z,14.30
2018-04-29T09:07:10.830Z,14.20
2018-04-29T09:09:38.452Z,14.10
2018-04-29T09:12:06.186Z,14.10
2018-04-29T09:14:33.924Z,14.00
2018-04-29T09:17:01.562Z,13.90
2018-04-29T09:19:29.349Z,13.70
2018-04-29T09:21:56.949Z,13.60
2018-04-29T09:24:24.553Z,13.60
2018-04-29T09:26:52.234Z,13.60
2018-04-29T09:29:20.050Z,13.80
2018-04-29T09:31:47.765Z,14.00
2018-04-29T09:34:15.675Z,14.40
2018-04-29T09:36:43.295Z,14.80
2018-04-29T09:39:12.494Z,15.30
2018-04-29T09:41:40.267Z,15.70
2018-04-29T09:44:08.152Z,15.80
2018-04-29T09:46:35.860Z,15.90
2018-04-29T09:49:04.282Z,16.00
2018-04-29T09:51:32.230Z,15.90
2018-04-29T09:54:00.730Z,16.10
2018-04-29T09:56:28.434Z,16.20
2018-04-29T09:58:56.340Z,16.30
2018-04-29T10:01:26.066Z,16.60
2018-04-29T10:03:53.728Z,18.30
2018-04-29T10:06:21.391Z,20.40
2018-04-29T10:08:49.080Z,20.80
2018-04-29T10:11:16.796Z,20.30
2018-04-29T10:13:45.255Z,19.10
2018-04-29T10:16:12.915Z,19.10
2018-04-29T10:18:40.448Z,18.90
2018-04-29T10:21:08.099Z,19.50
2018-04-29T10:23:35.747Z,19.60
2018-04-29T10:26:03.308Z,19.90
2018-04-29T10:28:30.925Z,20.40
2018-04-29T10:30:58.691Z,21.10
2018-04-29T10:33:26.250Z,22.00
2018-04-29T10:35:53.815Z,22.30
2018-04-29T10:38:21.336Z,21.80
2018-04-29T10:40:48.936Z,21.80
2018-04-29T10:43:16.539Z,22.50
2018-04-29T10:45:44.201Z,23.70
2018-04-29T10:48:12.130Z,25.00
2018-04-29T10:50:39.792Z,25.20
2018-04-29T10:53:08.520Z,24.80
2018-04-29T10:55:36.144Z,23.30
2018-04-29T10:58:03.806Z,22.10
2018-04-29T11:00:31.664Z,21.60
2018-04-29T11:02:59.440Z,21.30
2018-04-29T11:05:27.102Z,21.40
2018-04-29T11:07:54.638Z,22.00
2018-04-29T11:10:22.535Z,22.60
2018-04-29T11:12:50.155Z,22.60
2018-04-29T11:15:17.707Z,22.40
2018-04-29T11:17:45.709Z,21.90
2018-04-29T11:20:13.322Z,21.80
2018-04-29T11:22:40.884Z,21.90
2018-04-29T11:25:08.546Z,22.30
2018-04-29T11:27:36.311Z,22.40
2018-04-29T11:30:04.076Z,22.90
2018-04-29T11:32:31.636Z,23.60
2018-04-29T11:34:59.370Z,24.20
2018-04-29T11:37:27.205Z,24.80
2018-04-29T11:39:54.770Z,25.20
2018-04-29T11:42:22.621Z,25.40
2018-04-29T11:44:50.195Z,25.10
2018-04-29T11:47:18.185Z,24.90
2018-04-29T11:49:45.700Z,24.60
2018-04-29T11:52:13.759Z,24.00
2018-04-29T11:54:41.318Z,23.50
2018-04-29T11:57:09.121Z,23.10
2018-04-29T11:59:36.825Z,23.20
2018-04-29T12:02:04.487Z,23.40
2018-04-29T12:04:32.114Z,23.90
2018-04-29T12:06:59.735Z,24.50
2018-04-29T12:09:27.480Z,24.80
2018-04-29T12:11:55.145Z,25.40
2018-04-29T12:14:23.757Z,25.80
2018-04-29T12:16:51.773Z,25.80
2018-04-29T12:19:19.556Z,25.30
2018-04-29T12:21:47.435Z,24.60
2018-04-29T12:24:16.020Z,25.10
2018-04-29T12:26:44.298Z,25.10
2018-04-29T12:29:12.051Z,25.80
2018-04-29T12:31:39.937Z,27.00
2018-04-29T12:34:07.700Z,28.20
2018-04-29T12:36:35.464Z,28.80
2018-04-29T12:39:03.538Z,29.00
2018-04-29T12:41:31.622Z,29.10
2018-04-29T12:43:59.396Z,29.00
2018-04-29T12:46:27.365Z,29.30
2018-04-29T12:48:55.225Z,29.90
2018-04-29T12:51:22.989Z,30.30
2018-04-29T12:53:50.664Z,30.10
2018-04-29T12:56:18.238Z,28.90
2018-04-29T12:58:45.978Z,28.70
2018-04-29T13:01:13.744Z,28.90
2018-04-29T13:03:41.612Z,28.50
2018-04-29T13:06:09.479Z,28.70
2018-04-29T13:08:37.449Z,28.30
2018-04-29T13:11:05.111Z,27.80
2018-04-29T13:13:32.934Z,27.20
2018-04-29T13:16:00.846Z,27.40
2018-04-29T13:18:29.645Z,27.60
2018-04-29T13:20:57.421Z,27.60
2018-04-29T13:23:25.371Z,27.10
2018-04-29T13:25:53.340Z,27.40
2018-04-29T13:28:21.030Z,27.70
2018-04-29T13:30:48.792Z,28.30
2018-04-29T13:33:16.534Z,28.50
2018-04-29T13:35:44.448Z,28.50
2018-04-29T13:38:12.170Z,28.80
2018-04-29T13:40:39.830Z,28.60
2018-04-29T13:43:07.594Z,29.00
2018-04-29T13:45:35.183Z,29.30
2018-04-29T13:48:02.818Z,29.30
2018-04-29T13:50:30.480Z,28.80
2018-04-29T13:52:58.138Z,28.00
2018-04-29T13:55:25.807Z,27.50
2018-04-29T13:57:53.357Z,27.00
2018-04-29T14:00:21.717Z,27.20
2018-04-29T14:02:50.126Z,28.30
2018-04-29T14:05:17.788Z,28.20
2018-04-29T14:07:45.437Z,28.50
2018-04-29T14:10:13.863Z,28.50
2018-04-29T14:12:41.482Z,28.40
2018-04-29T14:15:09.836Z,28.60
2018-04-29T14:17:37.536Z,28.60
2018-04-29T14:20:05.385Z,28.70
2018-04-29T14:22:33.660Z,28.60
2018-04-29T14:25:01.243Z,28.50
2018-04-29T14:27:28.877Z,29.10
2018-04-29T14:29:56.500Z,29.30
2018-04-29T14:32:24.027Z,29.70
2018-04-29T14:34:51.622Z,30.20
2018-04-29T14:37:19.248Z,29.90
2018-04-29T14:39:46.808Z,29.80
2018-04-29T14:42:14.331Z,29.30
2018-04-29T14:44:41.929Z,28.80
2018-04-29T14:47:09.759Z,28.50
2018-04-29T14:49:37.370Z,28.30
2018-04-29T14:52:04.918Z,28.10
2018-04-29T14:54:32.433Z,27.90
2018-04-29T14:57:00.332Z,27.70
2018-04-29T14:59:28.724Z,27.00
2018-04-29T15:01:56.251Z,26.90
2018-04-29T15:04:23.910Z,26.90
2018-04-29T15:06:51.508Z,27.00
2018-04-29T15:09:19.115Z,27.00
2018-04-29T15:11:46.672Z,26.90
2018-04-29T15:14:14.163Z,26.70
2018-04-29T15:16:41.955Z,26.90
2018-04-29T15:19:09.926Z,26.90
2018-04-29T15:21:37.723Z,26.30
2018-04-29T15:24:05.300Z,25.80
2018-04-29T15:26:32.913Z,25.10
2018-04-29T15:29:00.627Z,24.60
2018-04-29T15:31:28.366Z,24.20
2018-04-29T15:33:56.056Z,24.00
2018-04-29T15:36:23.769Z,23.70
2018-04-29T15:38:51.384Z,23.40
2018-04-29T15:41:18.994Z,23.20
2018-04-29T15:43:46.587Z,23.20
2018-04-29T15:46:14.271Z,22.90
2018-04-29T15:48:41.775Z,23.00
2018-04-29T15:51:10.037Z,23.00
2018-04-29T15:53:38.433Z,23.00
2018-04-29T15:56:05.948Z,23.00
2018-04-29T15:58:33.811Z,23.00
2018-04-29T16:01:01.422Z,23.10
2018-04-29T16:03:29.054Z,23.10
2018-04-29T16:05:57.421Z,23.10
2018-04-29T16:08:24.942Z,23.20
2018-04-29T16:10:52.543Z,23.20
2018-04-29T16:13:20.060Z,23.20
2018-04-29T16:15:47.561Z,23.10
2018-04-29T16:18:15.070Z,23.20
2018-04-29T16:20:42.581Z,23.20
2018-04-29T16:23:10.141Z,23.10
2018-04-29T16:25:37.883Z,23.10
2018-04-29T16:28:05.567Z,23.00
2018-04-29T16:30:33.100Z,22.80
2018-04-29T16:33:00.693Z,22.80
2018-04-29T16:35:28.353Z,22.80
2018-04-29T16:37:55.971Z,22.80
2018-04-29T16:40:24.263Z,22.80
2018-04-29T16:42:51.816Z,22.70
2018-04-29T16:45:19.624Z,22.70
2018-04-29T16:47:47.141Z,22.70
2018-04-29T16:50:14.786Z,22.80
2018-04-29T16:52:42.334Z,22.80
2018-04-29T16:55:09.974Z,22.80
2018-04-29T16:57:38.437Z,22.50
2018-04-29T17:00:06.051Z,22.50
2018-04-29T17:02:33.590Z,22.50
2018-04-29T17:05:02.015Z,22.50
2018-04-29T17:07:29.823Z,22.50
2018-04-29T17:09:57.446Z,22.50
2018-04-29T17:12:25.075Z,22.20
2018-04-29T17:14:52.680Z,22.00
2018-04-29T17:17:20.476Z,22.00
2018-04-29T17:19:48.766Z,21.70
2018-04-29T17:22:16.443Z,21.70
2018-04-29T17:24:44.003Z,21.70
2018-04-29T17:27:11.769Z,21.60
2018-04-29T17:29:39.508Z,21.60
2018-04-29T17:32:07.168Z,21.60
2018-04-29T17:34:34.782Z,21.60
2018-04-29T17:37:02.491Z,21.60
2018-04-29T17:39:30.165Z,21.60
2018-04-29T17:41:57.816Z,21.50
2018-04-29T17:44:25.479Z,21.40
2018-04-29T17:46:53.033Z,21.30
2018-04-29T17:49:20.695Z,21.30
2018-04-29T17:51:48.254Z,21.20
2018-04-29T17:54:15.816Z,21.20
2018-04-29T17:56:43.475Z,21.20
2018-04-29T17:59:11.087Z,21.10
2018-04-29T18:01:38.772Z,21.00
2018-04-29T18:04:06.417Z,20.90
2018-04-29T18:06:34.019Z,20.90
2018-04-29T18:09:01.615Z,20.80
2018-04-29T18:11:29.180Z,20.70
2018-04-29T18:13:56.797Z,20.70
2018-04-29T18:16:24.436Z,20.60
2018-04-29T18:18:52.031Z,20.70
2018-04-29T18:21:19.582Z,20.70
2018-04-29T18:23:47.140Z,20.60
2018-04-29T18:26:14.838Z,20.60
2018-04-29T18:28:43.231Z,20.60
2018-04-29T18:31:10.918Z,20.50
2018-04-29T18:33:38.456Z,20.40
2018-04-29T18:36:06.014Z,20.40
2018-04-29T18:38:33.553Z,20.30
2018-04-29T18:41:01.112Z,20.20
2018-04-29T18:43:29.373Z,20.10
2018-04-29T18:45:56.947Z,20.00
2018-04-29T18:48:24.549Z,20.10
2018-04-29T18:50:52.284Z,20.00
2018-04-29T18:53:19.607Z,19.90
2018-04-29T18:55:47.141Z,19.80
2018-04-29T18:58:14.668Z,19.80
2018-04-29T19:00:42.343Z,19.70
2018-04-29T19:03:09.868Z,19.60
2018-04-29T19:05:47.415Z,19.50
2018-04-29T19:08:15.055Z,19.40
2018-04-29T19:10:42.765Z,19.30
2018-04-29T19:13:10.381Z,19.20
2018-04-29T19:15:37.950Z,19.20
2018-04-29T19:18:05.928Z,19.10
2018-04-29T19:20:33.574Z,19.20
2018-04-29T19:23:01.238Z,19.20
2018-04-29T19:25:28.761Z,19.30
2018-04-29T19:27:56.402Z,19.30
2018-04-29T19:30:24.008Z,19.30
2018-04-29T19:32:51.684Z,19.30
2018-04-29T19:35:19.244Z,19.20
2018-04-29T19:37:47.002Z,19.20
2018-04-29T19:40:14.594Z,19.20
2018-04-29T19:42:42.232Z,19.20
2018-04-29T19:45:09.843Z,19.30
2018-04-29T19:47:37.458Z,19.20
2018-04-29T19:50:05.054Z,19.20
2018-04-29T19:52:32.814Z,19.20
2018-04-29T19:55:00.520Z,19.10
2018-04-29T19:57:28.897Z,19.00
2018-04-29T19:59:57.298Z,19.00
2018-04-29T20:02:25.699Z,19.00
2018-04-29T20:04:53.333Z,19.00
2018-04-29T20:07:20.910Z,19.00
2018-04-29T20:09:48.498Z,18.90
2018-04-29T20:12:16.049Z,18.90
2018-04-29T20:14:43.590Z,18.80
2018-04-29T20:17:11.177Z,18.80
2018-04-29T20:19:38.711Z,18.70
2018-04-29T20:22:06.286Z,18.70
2018-04-29T20:24:33.851Z,18.60
2018-04-29T20:27:01.494Z,18.60
2018-04-29T20:29:29.177Z,18.50
2018-04-29T20:31:56.820Z,18.50
2018-04-29T20:34:24.361Z,18.40
2018-04-29T20:36:52.763Z,18.40
2018-04-29T20:39:20.347Z,18.40
2018-04-29T20:41:47.957Z,18.40
2018-04-29T20:44:15.562Z,18.30
2018-04-29T20:46:43.201Z,18.40
2018-04-29T20:49:10.774Z,18.30
2018-04-29T20:51:38.367Z,18.30
2018-04-29T20:54:05.989Z,18.30
2018-04-29T20:56:33.652Z,18.30
2018-04-29T20:59:01.231Z,18.30
2018-04-29T21:01:28.936Z,18.30
2018-04-29T21:03:56.538Z,18.30
2018-04-29T21:06:24.155Z,18.30
2018-04-29T21:08:51.631Z,18.30
2018-04-29T21:11:19.998Z,18.20
2018-04-29T21:13:47.526Z,18.20
2018-04-29T21:16:15.063Z,18.10
2018-04-29T21:18:42.617Z,18.10
2018-04-29T21:21:10.245Z,18.00
2018-04-29T21:23:38.640Z,18.00
2018-04-29T21:26:06.226Z,18.00
2018-04-29T21:28:34.024Z,18.00
2018-04-29T21:31:01.552Z,17.90
2018-04-29T21:33:29.140Z,17.80
2018-04-29T21:35:56.769Z,17.70
2018-04-29T21:38:24.251Z,17.70
2018-04-29T21:40:51.748Z,17.60
2018-04-29T21:43:19.474Z,17.60
2018-04-29T21:45:46.984Z,17.50
2018-04-29T21:48:15.595Z,17.40
2018-04-29T21:50:43.192Z,17.40
2018-04-29T21:53:10.847Z,17.30
2018-04-29T21:55:38.407Z,17.30
2018-04-29T21:58:06.018Z,17.40
2018-04-29T22:00:34.438Z,17.30
2018-04-29T22:03:01.975Z,17.30
2018-04-29T22:05:29.561Z,17.20
2018-04-29T22:07:57.051Z,17.20
2018-04-29T22:10:24.703Z,17.30
2018-04-29T22:12:52.308Z,17.20
2018-04-29T22:15:20.572Z,17.20
2018-04-29T22:17:48.261Z,17.20
2018-04-29T22:20:15.906Z,17.30
2018-04-29T22:22:44.183Z,17.30
2018-04-29T22:25:11.857Z,17.20
2018-04-29T22:27:39.531Z,17.30
2018-04-29T22:30:07.170Z,17.30
2018-04-29T22:32:34.661Z,17.20
2018-04-29T22:35:02.299Z,17.20
2018-04-29T22:37:29.860Z,17.20
2018-04-29T22:39:57.387Z,17.10
2018-04-29T22:42:24.969Z,17.10
2018-04-29T22:44:52.555Z,17.10
2018-04-29T22:47:20.069Z,17.10
2018-04-29T22:49:47.677Z,17.00
2018-04-29T22:52:15.442Z,17.00
2018-04-29T22:54:43.142Z,16.90
2018-04-29T22:57:10.635Z,16.90
2018-04-29T22:59:38.199Z,17.00
2018-04-29T23:02:05.827Z,16.90
2018-04-29T23:04:33.422Z,17.00
2018-04-29T23:07:01.008Z,16.90
2018-04-29T23:09:28.612Z,16.90
2018-04-29T23:11:56.173Z,16.80
2018-04-29T23:14:23.699Z,16.80
2018-04-29T23:16:51.353Z,16.70
2018-04-29T23:19:18.913Z,16.70
2018-04-29T23:21:46.623Z,16.70
2018-04-29T23:24:14.310Z,16.60
2018-04-29T23:26:42.280Z,16.60
2018-04-29T23:29:10.741Z,16.30
2018-04-29T23:31:38.353Z,16.30
2018-04-29T23:34:05.952Z,16.20
2018-04-29T23:36:33.580Z,15.90
2018-04-29T23:39:01.294Z,15.70
2018-04-29T23:41:28.969Z,15.50
2018-04-29T23:43:56.529Z,15.50
2018-04-29T23:46:24.227Z,15.40
2018-04-29T23:48:51.949Z,15.20
2018-04-29T23:51:19.516Z,15.20
2018-04-29T23:53:47.792Z,14.90
2018-04-29T23:56:15.363Z,14.90
2018-04-29T23:58:43.690Z,14.70
